createdAt,value
2024-02-24T00:00:21.332Z,71.4
2024-02-24T00:01:21.834Z,71.6
2024-02-24T00:02:22.314Z,70.2
2024-02-24T00:03:23.044Z,70.8
2024-02-24T00:04:21.373Z,70.1
2024-02-24T00:05:21.335Z,70.2
2024-02-24T00:06:21.404Z,70.2
2024-02-24T00:07:21.429Z,70.8
2024-02-24T00:08:22.049Z,70.9
2024-02-24T00:09:21.713Z,71.5
2024-02-24T00:11:21.394Z,70.5
2024-02-24T00:12:22.217Z,70.8
2024-02-24T00:13:22.232Z,71.3
2024-02-24T00:14:21.407Z,71.9
2024-02-24T00:15:22.009Z,71.2
2024-02-24T00:16:21.330Z,70.8
2024-02-24T00:17:22.426Z,70.3
2024-02-24T00:18:21.374Z,70.5
2024-02-24T00:19:21.372Z,70.6
2024-02-24T00:20:21.342Z,71.3
2024-02-24T00:21:21.565Z,70.2
2024-02-24T00:22:21.321Z,70.5
2024-02-24T00:23:21.362Z,71.6
2024-02-24T00:24:21.328Z,71.5
2024-02-24T00:25:21.325Z,71.7
2024-02-24T00:26:21.440Z,71.4
2024-02-24T00:27:22.194Z,71.2
2024-02-24T00:28:21.311Z,71.5
2024-02-24T00:29:21.329Z,71.6
2024-02-24T00:30:22.164Z,71.6
2024-02-24T00:31:21.720Z,71.8
2024-02-24T00:32:21.524Z,71.9
2024-02-24T00:33:21.688Z,71.7
2024-02-24T00:34:22.081Z,71.5
2024-02-24T00:35:21.526Z,71
2024-02-24T00:36:22.007Z,71.6
2024-02-24T00:37:21.322Z,71.3
2024-02-24T00:38:21.650Z,70.9
2024-02-24T00:39:22.007Z,70.8
2024-02-24T00:40:21.329Z,70.4
2024-02-24T00:41:21.350Z,70.1
2024-02-24T00:42:21.332Z,70.8
2024-02-24T00:43:21.390Z,71
2024-02-24T00:44:21.386Z,71.5
2024-02-24T00:45:22.013Z,71.7
2024-02-24T00:46:22.117Z,71.6
2024-02-24T00:47:21.670Z,71.3
2024-02-24T00:48:21.922Z,71.4
2024-02-24T00:49:22.106Z,71.8
2024-02-24T00:50:21.382Z,71.4
2024-02-24T00:51:22.260Z,70.9
2024-02-24T00:52:22.043Z,70.7
2024-02-24T00:53:21.376Z,71.2
2024-02-24T00:54:21.732Z,71.6
2024-02-24T00:55:21.650Z,71.5
2024-02-24T00:56:21.361Z,71.7
2024-02-24T00:57:21.670Z,72
2024-02-24T00:58:21.328Z,72
2024-02-24T00:59:21.333Z,71.4
2024-02-24T01:00:21.331Z,70.6
2024-02-24T01:01:21.539Z,70.6
2024-02-24T01:02:21.653Z,70.7
2024-02-24T01:03:22.117Z,71.7
2024-02-24T01:04:25.758Z,72.1
2024-02-24T01:05:21.362Z,71.4
2024-02-24T01:06:21.457Z,71.7
2024-02-24T01:07:21.360Z,71.4
2024-02-24T01:08:22.107Z,71.4
2024-02-24T01:09:21.348Z,71.5
2024-02-24T01:10:21.953Z,71.6
2024-02-24T01:11:22.129Z,71.6
2024-02-24T01:12:21.992Z,72.3
2024-02-24T01:13:21.536Z,72.7
2024-02-24T01:14:21.692Z,71.4
2024-02-24T01:15:21.333Z,70.9
2024-02-24T01:16:21.348Z,71.4
2024-02-24T01:17:22.159Z,72
2024-02-24T01:18:21.425Z,71.4
2024-02-24T01:19:21.514Z,71.5
2024-02-24T01:20:21.815Z,71.9
2024-02-24T01:21:21.335Z,71.5
2024-02-24T01:22:21.332Z,72.1
2024-02-24T01:23:22.071Z,72.4
2024-02-24T01:24:21.659Z,72
2024-02-24T01:25:21.923Z,71.9
2024-02-24T01:26:21.352Z,72.3
2024-02-24T01:27:21.856Z,72
2024-02-24T01:28:21.581Z,72
2024-02-24T01:29:21.384Z,71
2024-02-24T01:30:22.011Z,70.6
2024-02-24T01:31:21.436Z,71.4
2024-02-24T01:32:22.073Z,71.6
2024-02-24T01:33:21.907Z,71.7
2024-02-24T01:34:22.292Z,71.2
2024-02-24T01:35:21.959Z,71.9
2024-02-24T01:36:22.179Z,71.9
2024-02-24T01:37:21.325Z,70.9
2024-02-24T01:38:21.703Z,71.7
2024-02-24T01:39:21.338Z,70.9
2024-02-24T01:40:21.360Z,71.5
2024-02-24T01:41:22.187Z,70.7
2024-02-24T01:42:22.237Z,71.2
2024-02-24T01:43:21.899Z,72.2
2024-02-24T01:44:21.436Z,71.8
2024-02-24T01:46:21.767Z,71.5
2024-02-24T01:47:21.370Z,71.3
2024-02-24T01:48:22.198Z,71.8
2024-02-24T01:49:21.365Z,71.8
2024-02-24T01:50:28.190Z,71.5
2024-02-24T01:51:28.514Z,71.5
2024-02-24T01:52:20.212Z,71.2
2024-02-24T01:53:21.388Z,71.6
2024-02-24T01:54:21.333Z,71.2
2024-02-24T01:55:21.349Z,70.8
2024-02-24T01:56:21.811Z,71
2024-02-24T01:57:21.335Z,70.4
2024-02-24T01:58:21.406Z,70.4
2024-02-24T01:59:21.471Z,71.5
2024-02-24T02:00:21.999Z,70.8
2024-02-24T02:01:21.866Z,70.3
2024-02-24T02:02:21.361Z,70.7
2024-02-24T02:03:21.407Z,70.7
2024-02-24T02:04:21.729Z,71.3
2024-02-24T02:05:21.379Z,71.2
2024-02-24T02:06:21.879Z,71
2024-02-24T02:07:21.345Z,70.9
2024-02-24T02:08:21.850Z,71.2
2024-02-24T02:09:21.944Z,71.4
2024-02-24T02:10:21.370Z,71.4
2024-02-24T02:11:22.066Z,71.2
2024-02-24T02:12:20.322Z,70.5
2024-02-24T02:13:21.338Z,70.8
2024-02-24T02:14:20.267Z,71.5
2024-02-24T02:15:21.335Z,71.9
2024-02-24T02:16:21.335Z,71.6
2024-02-24T02:17:21.352Z,72
2024-02-24T02:18:21.570Z,72.1
2024-02-24T02:19:21.962Z,71.7
2024-02-24T02:20:21.388Z,71.9
2024-02-24T02:21:21.938Z,72
2024-02-24T02:22:21.339Z,71.3
2024-02-24T02:23:22.203Z,71.5
2024-02-24T02:25:21.360Z,71.7
2024-02-24T02:26:21.729Z,72.3
2024-02-24T02:27:21.915Z,72
2024-02-24T02:28:21.343Z,72.4
2024-02-24T02:29:21.410Z,72.7
2024-02-24T02:30:21.339Z,72.5
2024-02-24T02:31:21.495Z,72.4
2024-02-24T02:32:21.680Z,72.5
2024-02-24T02:33:22.001Z,72.9
2024-02-24T02:34:21.408Z,72.9
2024-02-24T02:35:22.257Z,73
2024-02-24T02:36:21.347Z,72.9
2024-02-24T02:37:21.671Z,72.5
2024-02-24T02:38:21.382Z,72.7
2024-02-24T02:39:21.892Z,72.4
2024-02-24T02:40:21.507Z,72.1
2024-02-24T02:41:21.348Z,71.9
2024-02-24T02:42:21.332Z,72.2
2024-02-24T02:43:21.612Z,72.5
2024-02-24T02:44:21.399Z,72.5
2024-02-24T02:45:21.834Z,71.7
2024-02-24T02:46:21.651Z,71.1
2024-02-24T02:47:24.109Z,71.7
2024-02-24T02:48:22.253Z,72.2
2024-02-24T02:49:21.530Z,72.2
2024-02-24T02:50:21.717Z,72.3
2024-02-24T02:51:21.338Z,71.7
2024-02-24T02:52:21.661Z,71.4
2024-02-24T02:53:21.359Z,71.6
2024-02-24T02:54:21.347Z,71.9
2024-02-24T02:55:21.336Z,71.8
2024-02-24T02:56:21.361Z,72.4
2024-02-24T02:57:21.794Z,71.9
2024-02-24T02:58:22.139Z,72.2
2024-02-24T02:59:21.366Z,72.2
2024-02-24T03:00:21.382Z,72.2
2024-02-24T03:01:21.584Z,71.4
2024-02-24T03:02:21.374Z,71.8
2024-02-24T03:03:21.449Z,72.2
2024-02-24T03:04:21.451Z,72.4
2024-02-24T03:05:21.354Z,72.6
2024-02-24T03:06:21.995Z,71.9
2024-02-24T03:08:22.153Z,71.4
2024-02-24T03:09:21.722Z,71.1
2024-02-24T03:10:22.043Z,71.8
2024-02-24T03:11:21.712Z,71.9
2024-02-24T03:12:22.201Z,71.7
2024-02-24T03:13:21.858Z,72
2024-02-24T03:14:21.423Z,72.4
2024-02-24T03:15:22.164Z,72.2
2024-02-24T03:16:21.672Z,72
2024-02-24T03:17:22.124Z,71.7
2024-02-24T03:18:21.789Z,71.8
2024-02-24T03:19:21.941Z,70.8
2024-02-24T03:20:22.102Z,71.4
2024-02-24T03:21:24.494Z,71.3
2024-02-24T03:22:21.866Z,71.5
2024-02-24T03:23:22.158Z,71.5
2024-02-24T03:24:21.669Z,71
2024-02-24T03:25:21.983Z,70.3
2024-02-24T03:26:21.851Z,69.9
2024-02-24T03:27:21.715Z,70.2
2024-02-24T03:28:21.751Z,69.8
2024-02-24T03:29:21.421Z,70.3
2024-02-24T03:30:21.395Z,70.5
2024-02-24T03:31:21.349Z,70.8
2024-02-24T03:32:22.107Z,71.1
2024-02-24T03:33:21.965Z,71.1
2024-02-24T03:34:21.470Z,71.5
2024-02-24T03:35:22.094Z,71.3
2024-02-24T03:36:21.986Z,71.3
2024-02-24T03:37:21.479Z,71.3
2024-02-24T03:38:21.383Z,71
2024-02-24T03:39:22.232Z,70.7
2024-02-24T03:40:22.063Z,70.8
2024-02-24T03:41:21.956Z,70.9
2024-02-24T03:42:21.757Z,70.6
2024-02-24T03:43:21.354Z,70.2
2024-02-24T03:44:21.359Z,70.7
2024-02-24T03:45:21.365Z,70.9
2024-02-24T03:46:22.065Z,70.6
2024-02-24T03:47:21.454Z,70.5
2024-02-24T03:48:22.072Z,70.4
2024-02-24T03:49:21.421Z,70.7
2024-02-24T03:50:22.208Z,70.9
2024-02-24T03:51:21.371Z,70.4
2024-02-24T03:52:21.356Z,70.5
2024-02-24T03:53:21.380Z,70.7
2024-02-24T03:54:21.375Z,70.2
2024-02-24T03:55:21.367Z,70.4
2024-02-24T03:56:21.398Z,70.5
2024-02-24T03:57:21.670Z,70.8
2024-02-24T03:58:21.354Z,70.8
2024-02-24T03:59:21.668Z,70.4
2024-02-24T04:00:21.743Z,70.5
2024-02-24T04:01:21.425Z,69.9
2024-02-24T04:02:22.131Z,70.4
2024-02-24T04:03:21.366Z,70.5
2024-02-24T04:04:21.401Z,70.8
2024-02-24T04:05:21.357Z,70.9
2024-02-24T04:06:21.375Z,70.5
2024-02-24T04:07:21.348Z,70.6
2024-02-24T04:08:22.228Z,70.8
2024-02-24T04:09:21.766Z,71.4
2024-02-24T04:10:21.775Z,71.3
2024-02-24T04:11:21.611Z,71.1
2024-02-24T04:12:21.571Z,71
2024-02-24T04:13:21.496Z,71.4
2024-02-24T04:14:22.134Z,70.9
2024-02-24T04:15:21.613Z,70.5
2024-02-24T04:16:21.538Z,71
2024-02-24T04:17:22.126Z,70.9
2024-02-24T04:18:21.477Z,70.7
2024-02-24T04:19:21.545Z,71.2
2024-02-24T04:20:21.662Z,71
2024-02-24T04:21:15.942Z,70.5
2024-02-24T04:22:20.232Z,70.4
2024-02-24T04:23:21.383Z,69.9
2024-02-24T04:24:21.366Z,70.2
2024-02-24T04:25:21.360Z,69.6
2024-02-24T04:26:22.044Z,70.5
2024-02-24T04:27:22.303Z,70.4
2024-02-24T04:28:23.066Z,70.2
2024-02-24T04:29:21.965Z,70.5
2024-02-24T04:30:21.362Z,70.6
2024-02-24T04:31:22.166Z,71
2024-02-24T04:32:21.402Z,71.2
2024-02-24T04:33:21.863Z,70.6
2024-02-24T04:34:21.609Z,70.3
2024-02-24T04:35:21.400Z,70.8
2024-02-24T04:36:22.165Z,70.2
2024-02-24T04:37:21.373Z,69.8
2024-02-24T04:38:21.371Z,70.1
2024-02-24T04:39:21.612Z,70.9
2024-02-24T04:40:22.046Z,71.5
2024-02-24T04:41:21.806Z,70.9
2024-02-24T04:42:22.081Z,70.8
2024-02-24T04:43:22.228Z,70.3
2024-02-24T04:44:21.776Z,70.4
2024-02-24T04:45:22.112Z,70.9
2024-02-24T04:46:21.372Z,71.3
2024-02-24T04:47:22.059Z,70.9
2024-02-24T04:48:21.554Z,70.7
2024-02-24T04:49:21.487Z,71.2
2024-02-24T04:50:21.404Z,71
2024-02-24T04:51:21.352Z,71.1
2024-02-24T04:52:21.369Z,71.4
2024-02-24T04:53:21.599Z,71.8
2024-02-24T04:54:20.252Z,71.6
2024-02-24T04:55:21.351Z,71.6
2024-02-24T04:56:21.595Z,71.4
2024-02-24T04:57:21.420Z,71.1
2024-02-24T04:58:21.916Z,70.7
2024-02-24T04:59:21.604Z,70.8
2024-02-24T05:00:21.823Z,71.1
2024-02-24T05:01:21.435Z,71.1
2024-02-24T05:02:21.427Z,70.7
2024-02-24T05:03:22.031Z,71.1
2024-02-24T05:04:21.539Z,71.3
2024-02-24T05:05:22.059Z,70.8
2024-02-24T05:06:21.376Z,70.6
2024-02-24T05:07:21.371Z,70.8
2024-02-24T05:08:21.591Z,70.6
2024-02-24T05:09:21.768Z,71
2024-02-24T05:10:21.356Z,71.4
2024-02-24T05:11:22.234Z,70.8
2024-02-24T05:12:21.355Z,70.7
2024-02-24T05:13:21.361Z,71.1
2024-02-24T05:14:22.256Z,71
2024-02-24T05:15:21.357Z,71
2024-02-24T05:16:21.365Z,70.4
2024-02-24T05:17:21.911Z,70.6
2024-02-24T05:18:22.176Z,70.5
2024-02-24T05:19:21.527Z,70.3
2024-02-24T05:20:21.386Z,70.1
2024-02-24T05:22:22.153Z,70.2
2024-02-24T05:23:21.396Z,69.7
2024-02-24T05:24:22.023Z,69.9
2024-02-24T05:25:21.349Z,70.7
2024-02-24T05:26:21.844Z,70.6
2024-02-24T05:27:21.355Z,70.6
2024-02-24T05:28:21.362Z,70.8
2024-02-24T05:29:21.471Z,71
2024-02-24T05:30:21.362Z,70.9
2024-02-24T05:31:21.394Z,71.2
2024-02-24T05:32:21.442Z,71.4
2024-02-24T05:33:21.517Z,71.2
2024-02-24T05:34:21.556Z,70.2
2024-02-24T05:35:21.389Z,70.5
2024-02-24T05:36:21.362Z,70.4
2024-02-24T05:37:21.987Z,70.6
2024-02-24T05:38:21.949Z,70.5
2024-02-24T05:39:21.528Z,69.9
2024-02-24T05:40:21.355Z,69.9
2024-02-24T05:41:21.622Z,69.3
2024-02-24T05:42:21.360Z,70
2024-02-24T05:43:22.041Z,70
2024-02-24T05:44:21.954Z,70
2024-02-24T05:45:21.378Z,69.7
2024-02-24T05:46:22.080Z,69.9
2024-02-24T05:47:21.706Z,69.7
2024-02-24T05:48:21.421Z,70.2
2024-02-24T05:49:21.603Z,69.7
2024-02-24T05:50:21.391Z,69.8
2024-02-24T05:51:22.028Z,70.5
2024-02-24T05:52:21.362Z,70
2024-02-24T05:53:22.021Z,69.2
2024-02-24T05:54:21.914Z,70.1
2024-02-24T05:55:21.877Z,70.6
2024-02-24T05:56:21.954Z,70.8
2024-02-24T05:57:22.317Z,70.8
2024-02-24T05:58:21.524Z,70.6
2024-02-24T05:59:21.806Z,70.7
2024-02-24T06:00:22.531Z,70.7
2024-02-24T06:01:21.450Z,70.7
2024-02-24T06:02:21.431Z,70
2024-02-24T06:03:21.431Z,70.4
2024-02-24T06:04:21.591Z,70.5
2024-02-24T06:06:21.968Z,70
2024-02-24T06:07:21.871Z,69.6
2024-02-24T06:08:21.407Z,69.9
2024-02-24T06:09:21.390Z,70
2024-02-24T06:10:21.367Z,70.1
2024-02-24T06:11:21.427Z,70.8
2024-02-24T06:12:21.982Z,70.4
2024-02-24T06:13:21.844Z,69.8
2024-02-24T06:14:22.010Z,70.4
2024-02-24T06:15:21.698Z,70.8
2024-02-24T06:16:21.617Z,71
2024-02-24T06:19:21.417Z,70.4
2024-02-24T06:20:22.818Z,69.4
2024-02-24T06:21:21.374Z,69.9
2024-02-24T06:22:21.515Z,69.8
2024-02-24T06:23:21.489Z,69.9
2024-02-24T06:24:22.128Z,70.2
2024-02-24T06:25:21.843Z,70.2
2024-02-24T06:26:21.421Z,70.2
2024-02-24T06:27:21.368Z,70.1
2024-02-24T06:28:21.374Z,70.2
2024-02-24T06:29:21.756Z,70
2024-02-24T06:30:21.847Z,69
2024-02-24T06:31:21.989Z,69.6
2024-02-24T06:32:21.391Z,69.4
2024-02-24T06:33:21.544Z,70
2024-02-24T06:34:22.126Z,70.6
2024-02-24T06:35:21.408Z,70.6
2024-02-24T06:36:20.490Z,71
2024-02-24T06:37:21.371Z,70.5
2024-02-24T06:38:21.404Z,69.8
2024-02-24T06:39:21.630Z,69.8
2024-02-24T06:41:21.401Z,69.9
2024-02-24T06:42:21.374Z,70.4
2024-02-24T06:43:21.400Z,70.4
2024-02-24T06:44:21.427Z,70.5
2024-02-24T06:45:21.360Z,69.2
2024-02-24T06:46:22.713Z,70.1
2024-02-24T06:47:28.853Z,69.2
2024-02-24T06:48:21.815Z,68.9
2024-02-24T06:49:21.510Z,69.7
2024-02-24T06:50:21.438Z,69.3
2024-02-24T06:51:21.372Z,69.4
2024-02-24T06:52:20.257Z,69.8
2024-02-24T06:53:21.908Z,69.5
2024-02-24T06:54:21.711Z,69.9
2024-02-24T06:55:21.465Z,70.1
2024-02-24T06:56:21.418Z,70.4
2024-02-24T06:57:22.069Z,69.9
2024-02-24T06:58:22.200Z,70
2024-02-24T07:00:21.382Z,69.3
2024-02-24T07:01:22.252Z,69.1
2024-02-24T07:02:21.946Z,69.3
2024-02-24T07:03:21.518Z,69.5
2024-02-24T07:04:21.368Z,69.4
2024-02-24T07:05:21.985Z,69.5
2024-02-24T07:06:21.956Z,70.1
2024-02-24T07:07:22.117Z,70.2
2024-02-24T07:08:21.410Z,70.2
2024-02-24T07:09:22.002Z,70.7
2024-02-24T07:10:21.377Z,70.4
2024-02-24T07:12:21.769Z,68
2024-02-24T07:13:21.366Z,68.9
2024-02-24T07:14:21.402Z,68.4
2024-02-24T07:15:21.372Z,69
2024-02-24T07:16:21.779Z,69
2024-02-24T07:17:21.833Z,69
2024-02-24T07:18:21.846Z,68.8
2024-02-24T07:19:21.941Z,69
2024-02-24T07:21:21.378Z,69.2
2024-02-24T07:22:22.078Z,69.6
2024-02-24T07:23:21.894Z,69.7
2024-02-24T07:24:21.562Z,69.3
2024-02-24T07:25:21.393Z,68.8
2024-02-24T07:26:21.433Z,68.9
2024-02-24T07:27:22.125Z,68.9
2024-02-24T07:28:21.762Z,69
2024-02-24T07:29:22.093Z,68.9
2024-02-24T07:30:22.782Z,69.1
2024-02-24T07:31:21.370Z,69.4
2024-02-24T07:32:21.575Z,69.3
2024-02-24T07:33:21.514Z,69.1
2024-02-24T07:34:22.343Z,68.4
2024-02-24T07:35:21.415Z,69.3
2024-02-24T07:36:21.946Z,69.4
2024-02-24T07:37:21.376Z,68.1
2024-02-24T07:38:22.062Z,67.6
2024-02-24T07:40:21.977Z,67.6
2024-02-24T07:41:22.127Z,67.9
2024-02-24T07:42:21.371Z,67.4
2024-02-24T07:43:22.293Z,67.5
2024-02-24T07:45:22.096Z,68.9
2024-02-24T07:46:21.615Z,68.6
2024-02-24T07:47:21.395Z,68.6
2024-02-24T07:48:21.476Z,68.9
2024-02-24T07:49:21.834Z,68.4
2024-02-24T07:50:21.411Z,68.7
2024-02-24T07:51:22.137Z,68.8
2024-02-24T07:52:21.933Z,68.8
2024-02-24T07:53:21.409Z,68.2
2024-02-24T07:54:21.744Z,67.8
2024-02-24T07:55:21.399Z,68.1
2024-02-24T07:56:21.860Z,67.3
2024-02-24T07:57:22.135Z,67.6
2024-02-24T07:58:21.376Z,67.3
2024-02-24T07:59:21.395Z,68.4
2024-02-24T08:00:21.384Z,68.1
2024-02-24T08:01:21.468Z,68.1
2024-02-24T08:02:21.993Z,67.4
2024-02-24T08:03:21.409Z,68
2024-02-24T08:04:21.454Z,67.7
2024-02-24T08:05:21.427Z,67
2024-02-24T08:06:22.378Z,67.5
2024-02-24T08:07:21.386Z,68.3
2024-02-24T08:08:21.431Z,68.2
2024-02-24T08:09:21.383Z,67.9
2024-02-24T08:10:21.396Z,67.6
2024-02-24T08:11:21.650Z,67.7
2024-02-24T08:12:21.689Z,68.3
2024-02-24T08:13:21.383Z,69.4
2024-02-24T08:14:21.383Z,69.6
2024-02-24T08:15:21.458Z,69.6
2024-02-24T08:16:21.396Z,69.3
2024-02-24T08:17:21.462Z,70.4
2024-02-24T08:18:21.428Z,70.2
2024-02-24T08:19:21.459Z,70.2
2024-02-24T08:20:21.791Z,69.5
2024-02-24T08:21:21.958Z,69.9
2024-02-24T08:22:21.823Z,69.8
2024-02-24T08:23:21.508Z,70.7
2024-02-24T08:24:21.388Z,70.8
2024-02-24T08:25:21.466Z,70.4
2024-02-24T08:26:21.402Z,70.5
2024-02-24T08:27:21.544Z,70.4
2024-02-24T08:28:21.894Z,70.6
2024-02-24T08:29:21.416Z,70.6
2024-02-24T08:30:21.386Z,70.1
2024-02-24T08:31:21.733Z,69.9
2024-02-24T08:32:21.403Z,69.1
2024-02-24T08:33:22.123Z,69.4
2024-02-24T08:34:21.744Z,69.7
2024-02-24T08:35:22.076Z,68.9
2024-02-24T08:36:21.464Z,68.7
2024-02-24T08:37:21.380Z,67.8
2024-02-24T08:38:21.457Z,67.4
2024-02-24T08:39:21.565Z,67.5
2024-02-24T08:40:22.048Z,68
2024-02-24T08:41:21.425Z,67.9
2024-02-24T08:42:22.079Z,67.1
2024-02-24T08:43:21.400Z,67
2024-02-24T08:44:21.773Z,67.4
2024-02-24T08:45:21.398Z,67.5
2024-02-24T08:46:22.085Z,66.2
2024-02-24T08:47:22.173Z,66.9
2024-02-24T08:48:21.444Z,67.8
2024-02-24T08:49:21.420Z,68.2
2024-02-24T08:50:21.512Z,67.8
2024-02-24T08:51:21.403Z,68.4
2024-02-24T08:52:25.716Z,68.3
2024-02-24T08:54:21.391Z,69.2
2024-02-24T08:55:22.277Z,69.4
2024-02-24T08:56:21.944Z,70.3
2024-02-24T08:57:21.394Z,70.9
2024-02-24T08:58:21.406Z,71.2
2024-02-24T08:59:21.629Z,71.4
2024-02-24T09:00:22.155Z,71.3
2024-02-24T09:01:22.376Z,70.2
2024-02-24T09:02:21.445Z,70.4
2024-02-24T09:03:22.464Z,71.5
2024-02-24T09:04:21.380Z,71.9
2024-02-24T09:05:21.587Z,72.7
2024-02-24T09:06:21.540Z,72.9
2024-02-24T09:07:21.514Z,73.3
2024-02-24T09:08:21.517Z,73.4
2024-02-24T09:10:21.612Z,73.5
2024-02-24T09:11:21.490Z,74.3
2024-02-24T09:12:22.163Z,74.6
2024-02-24T09:13:21.396Z,74.6
2024-02-24T09:14:21.412Z,73.8
2024-02-24T09:15:21.389Z,74.4
2024-02-24T09:16:21.943Z,74.7
2024-02-24T09:17:21.428Z,74.7
2024-02-24T09:18:21.507Z,75.5
2024-02-24T09:19:21.404Z,74.9
2024-02-24T09:20:21.970Z,75.2
2024-02-24T09:21:21.638Z,76.3
2024-02-24T09:22:20.723Z,76.3
2024-02-24T09:23:21.817Z,76.3
2024-02-24T09:24:21.741Z,76.6
2024-02-24T09:25:22.018Z,76.9
2024-02-24T09:26:21.412Z,78
2024-02-24T09:27:21.395Z,77.7
2024-02-24T09:28:21.750Z,77.6
2024-02-24T09:29:21.429Z,77.3
2024-02-24T09:30:21.497Z,77.7
2024-02-24T09:31:21.735Z,78.2
2024-02-24T09:32:21.409Z,78.3
2024-02-24T09:33:22.045Z,79.4
2024-02-24T09:34:21.531Z,78.9
2024-02-24T09:35:21.433Z,79.2
2024-02-24T09:36:21.395Z,79.6
2024-02-24T09:37:21.788Z,79.7
2024-02-24T09:38:21.778Z,79.5
2024-02-24T09:39:21.783Z,79.5
2024-02-24T09:40:21.748Z,79.2
2024-02-24T09:41:21.456Z,79.3
2024-02-24T09:42:21.395Z,79.6
2024-02-24T09:43:21.499Z,79.5
2024-02-24T09:44:21.439Z,79.5
2024-02-24T09:45:21.479Z,80.4
2024-02-24T09:46:21.404Z,80.1
2024-02-24T09:47:21.416Z,80.5
2024-02-24T09:48:21.547Z,80.1
2024-02-24T09:49:21.491Z,79.4
2024-02-24T09:50:22.156Z,80.2
2024-02-24T09:51:21.610Z,79.2
2024-02-24T09:52:22.340Z,79.6
2024-02-24T09:53:21.470Z,79.7
2024-02-24T09:54:21.658Z,79.6
2024-02-24T09:55:21.432Z,79.3
2024-02-24T09:56:21.469Z,80.7
2024-02-24T09:57:21.809Z,80.7
2024-02-24T09:58:21.390Z,81
2024-02-24T09:59:21.443Z,81
2024-02-24T10:00:21.386Z,81.8
2024-02-24T10:01:21.850Z,81.5
2024-02-24T10:02:21.954Z,81.6
2024-02-24T10:03:22.395Z,80.8
2024-02-24T10:04:21.758Z,82.2
2024-02-24T10:05:21.969Z,82.3
2024-02-24T10:06:21.537Z,82
2024-02-24T10:07:21.702Z,80.6
2024-02-24T10:08:22.118Z,80.6
2024-02-24T10:09:21.389Z,80.3
2024-02-24T10:10:21.770Z,80.7
2024-02-24T10:11:21.493Z,81.2
2024-02-24T10:12:22.537Z,81.8
2024-02-24T10:13:21.390Z,82.6
2024-02-24T10:14:22.038Z,82
2024-02-24T10:15:21.436Z,82.1
2024-02-24T10:16:21.888Z,80.9
2024-02-24T10:17:21.991Z,80.9
2024-02-24T10:18:21.566Z,81.4
2024-02-24T10:19:22.743Z,82.9
2024-02-24T10:20:21.757Z,82.5
2024-02-24T10:21:21.390Z,82.4
2024-02-24T10:22:21.384Z,82.8
2024-02-24T10:23:22.069Z,83
2024-02-24T10:24:21.934Z,82.7
2024-02-24T10:25:21.780Z,81.4
2024-02-24T10:27:22.214Z,81.4
2024-02-24T10:28:21.392Z,82.5
2024-02-24T10:29:21.449Z,82.5
2024-02-24T10:30:24.286Z,82.2
2024-02-24T10:31:21.384Z,81.3
2024-02-24T10:32:21.415Z,81.3
2024-02-24T10:33:22.691Z,81.5
2024-02-24T10:34:21.440Z,81.3
2024-02-24T10:35:22.310Z,81.8
2024-02-24T10:36:21.433Z,81.7
2024-02-24T10:37:22.076Z,81.5
2024-02-24T10:38:29.112Z,80.9
2024-02-24T10:39:22.204Z,80.8
2024-02-24T10:40:22.179Z,80.3
2024-02-24T10:41:24.685Z,80.4
2024-02-24T10:42:22.158Z,80.6
2024-02-24T10:43:21.385Z,81.4
2024-02-24T10:44:23.495Z,81.4
2024-02-24T10:45:21.881Z,81.9
2024-02-24T10:46:21.624Z,80.9
2024-02-24T10:47:21.815Z,81.9
2024-02-24T10:48:22.047Z,81.6
2024-02-24T10:49:22.204Z,80.5
2024-02-24T10:50:21.427Z,79.5
2024-02-24T10:51:21.854Z,79
2024-02-24T10:52:21.395Z,79.6
2024-02-24T10:53:21.885Z,79.5
2024-02-24T10:54:21.973Z,79.8
2024-02-24T10:55:21.613Z,79.3
2024-02-24T10:56:22.197Z,78.7
2024-02-24T10:57:21.413Z,78.7
2024-02-24T10:58:21.738Z,78.4
2024-02-24T10:59:22.297Z,78.3
2024-02-24T11:00:21.423Z,78.7
2024-02-24T11:01:21.467Z,79.4
2024-02-24T11:02:21.420Z,78
2024-02-24T11:03:21.404Z,77
2024-02-24T11:04:21.768Z,77.2
2024-02-24T11:05:22.256Z,77.3
2024-02-24T11:06:21.660Z,77.8
2024-02-24T11:07:22.026Z,77.4
2024-02-24T11:08:21.409Z,77.9
2024-02-24T11:09:21.790Z,77.4
2024-02-24T11:10:21.829Z,78
2024-02-24T11:11:21.471Z,76.7
2024-02-24T11:12:21.503Z,75.6
2024-02-24T11:13:21.685Z,75
2024-02-24T11:14:21.606Z,75.6
2024-02-24T11:15:21.524Z,76.4
2024-02-24T11:16:21.399Z,74.2
2024-02-24T11:17:21.946Z,75.5
2024-02-24T11:18:21.544Z,77.2
2024-02-24T11:19:21.548Z,75.8
2024-02-24T11:20:21.479Z,75.2
2024-02-24T11:21:21.662Z,74.5
2024-02-24T11:22:21.416Z,75.5
2024-02-24T11:23:21.783Z,76.1
2024-02-24T11:24:21.407Z,72.2
2024-02-24T11:25:21.484Z,71.4
2024-02-24T11:26:22.358Z,71.4
2024-02-24T11:27:21.578Z,72.3
2024-02-24T11:28:21.669Z,71.9
2024-02-24T11:29:22.046Z,70.5
2024-02-24T11:30:22.069Z,68.4
2024-02-24T11:31:23.620Z,69.1
2024-02-24T11:32:21.429Z,70.3
2024-02-24T11:33:21.704Z,72
2024-02-24T11:34:21.483Z,71.7
2024-02-24T11:35:21.525Z,72.4
2024-02-24T11:36:21.932Z,69.6
2024-02-24T11:37:21.386Z,70.3
2024-02-24T11:38:21.406Z,68.6
2024-02-24T11:39:21.435Z,69
2024-02-24T11:40:21.432Z,67.5
2024-02-24T11:41:22.350Z,68.7
2024-02-24T11:42:22.356Z,69.1
2024-02-24T11:43:22.094Z,69.4
2024-02-24T11:44:22.060Z,67.4
2024-02-24T11:45:21.882Z,68
2024-02-24T11:46:21.886Z,68.3
2024-02-24T11:47:21.426Z,69
2024-02-24T11:48:21.611Z,68.8
2024-02-24T11:49:21.506Z,67.8
2024-02-24T11:50:21.648Z,66.1
2024-02-24T11:51:21.683Z,66.9
2024-02-24T11:52:20.799Z,67.2
2024-02-24T11:53:21.446Z,67.3
2024-02-24T11:54:21.991Z,67.9
2024-02-24T11:55:22.050Z,67.3
2024-02-24T11:56:21.790Z,66.2
2024-02-24T11:57:21.536Z,66.3
2024-02-24T11:58:22.389Z,66.4
2024-02-24T11:59:21.962Z,67.5
2024-02-24T12:00:21.398Z,66.4
2024-02-24T12:01:21.785Z,66.4
2024-02-24T12:02:21.843Z,65.3
2024-02-24T12:03:24.143Z,64.6
2024-02-24T12:05:22.308Z,64.5
2024-02-24T12:06:21.481Z,64.3
2024-02-24T12:07:21.426Z,65.4
2024-02-24T12:08:22.227Z,66
2024-02-24T12:09:21.712Z,66.5
2024-02-24T12:10:21.399Z,66.5
2024-02-24T12:11:21.486Z,64.4
2024-02-24T12:13:22.046Z,64
2024-02-24T12:14:22.099Z,65
2024-02-24T12:15:21.884Z,65.3
2024-02-24T12:16:21.396Z,63.8
2024-02-24T12:17:21.749Z,64.4
2024-02-24T12:18:21.696Z,64.9
2024-02-24T12:19:21.439Z,65.8
2024-02-24T12:20:22.080Z,63.8
2024-02-24T12:21:21.400Z,65
2024-02-24T12:22:21.848Z,64.6
2024-02-24T12:23:21.445Z,63.5
2024-02-24T12:24:22.200Z,63.6
2024-02-24T12:25:21.403Z,64.3
2024-02-24T12:26:21.439Z,61.2
2024-02-24T12:27:21.397Z,61
2024-02-24T12:28:22.157Z,60.8
2024-02-24T12:29:22.003Z,60.4
2024-02-24T12:30:21.852Z,59.9
2024-02-24T12:31:21.398Z,60.1
2024-02-24T12:32:21.521Z,60.3
2024-02-24T12:33:21.494Z,59.6
2024-02-24T12:34:21.520Z,59.1
2024-02-24T12:35:21.424Z,59.6
2024-02-24T12:36:22.761Z,60.7
2024-02-24T12:37:22.171Z,60.6
2024-02-24T12:38:22.028Z,60
2024-02-24T12:39:21.416Z,60.3
2024-02-24T12:40:22.155Z,59.3
2024-02-24T12:41:21.466Z,59.6
2024-02-24T12:42:23.896Z,59.3
2024-02-24T12:43:21.433Z,57.7
2024-02-24T12:44:21.641Z,58.5
2024-02-24T12:45:21.953Z,57.4
2024-02-24T12:46:21.437Z,57.4
2024-02-24T12:47:21.609Z,59.1
2024-02-24T12:48:22.046Z,58.7
2024-02-24T12:49:21.464Z,58.9
2024-02-24T12:50:22.242Z,59.6
2024-02-24T12:51:21.432Z,58.6
2024-02-24T12:52:21.946Z,58.6
2024-02-24T12:53:21.503Z,58
2024-02-24T12:54:21.499Z,59.4
2024-02-24T12:55:22.188Z,58.6
2024-02-24T12:56:21.987Z,59.6
2024-02-24T12:57:21.407Z,59.5
2024-02-24T12:58:21.574Z,58.2
2024-02-24T12:59:21.499Z,59.2
2024-02-24T13:00:24.076Z,59.5
2024-02-24T13:01:22.146Z,58
2024-02-24T13:02:21.428Z,58.3
2024-02-24T13:03:21.421Z,59.2
2024-02-24T13:04:21.469Z,59
2024-02-24T13:05:21.595Z,58.9
2024-02-24T13:06:21.587Z,59
2024-02-24T13:07:21.421Z,59.4
2024-02-24T13:08:22.076Z,57.3
2024-02-24T13:09:21.444Z,57.7
2024-02-24T13:10:22.212Z,58.9
2024-02-24T13:11:22.157Z,57.3
2024-02-24T13:12:21.611Z,54.1
2024-02-24T13:13:22.074Z,54.7
2024-02-24T13:14:21.938Z,54.5
2024-02-24T13:15:21.903Z,55.1
2024-02-24T13:16:21.419Z,55.4
2024-02-24T13:17:21.511Z,54.6
2024-02-24T13:18:21.574Z,54.9
2024-02-24T13:19:21.536Z,53.2
2024-02-24T13:20:22.162Z,52.4
2024-02-24T13:21:21.415Z,53.5
2024-02-24T13:22:21.475Z,54.5
2024-02-24T13:23:22.238Z,54.6
2024-02-24T13:25:21.677Z,53.6
2024-02-24T13:26:21.452Z,54.3
2024-02-24T13:27:22.207Z,52.2
2024-02-24T13:28:21.418Z,51.9
2024-02-24T13:29:21.497Z,52.7
2024-02-24T13:30:21.977Z,54
2024-02-24T13:31:22.251Z,55.9
2024-02-24T13:32:21.447Z,52.7
2024-02-24T13:33:21.567Z,52.8
2024-02-24T13:34:22.179Z,52.8
2024-02-24T13:35:21.867Z,54.7
2024-02-24T13:36:21.412Z,54.1
2024-02-24T13:37:21.539Z,53.6
2024-02-24T13:38:21.857Z,53.2
2024-02-24T13:39:21.868Z,53
2024-02-24T13:40:21.417Z,54
2024-02-24T13:41:21.458Z,53.5
2024-02-24T13:42:15.968Z,53.3
2024-02-24T13:44:21.442Z,54.7